sensor_id;sensor_type;location;lat;lon;timestamp;pressure;altitude;pressure_sealevel;temperature;humidity
10732;BME280;5417;42.686;23.244;2022-08-21T00:02:26;93753.13;;;21.45;80.12
10732;BME280;5417;42.686;23.244;2022-08-21T00:04:53;93758.22;;;21.46;80.25
10732;BME280;5417;42.686;23.244;2022-08-21T00:07:20;93763.09;;;21.49;80.45
10732;BME280;5417;42.686;23.244;2022-08-21T00:09:47;93753.94;;;21.52;80.38
10732;BME280;5417;42.686;23.244;2022-08-21T00:12:14;93748.63;;;21.52;79.67
10732;BME280;5417;42.686;23.244;2022-08-21T00:14:45;93749.22;;;21.54;79.29
10732;BME280;5417;42.686;23.244;2022-08-21T00:17:12;93750.66;;;21.56;79.24
10732;BME280;5417;42.686;23.244;2022-08-21T00:19:39;93742.50;;;21.58;79.72
10732;BME280;5417;42.686;23.244;2022-08-21T00:22:06;93732.31;;;21.61;79.81
10732;BME280;5417;42.686;23.244;2022-08-21T00:24:34;93729.03;;;21.66;78.94
10732;BME280;5417;42.686;23.244;2022-08-21T00:27:02;93731.88;;;21.71;79.15
10732;BME280;5417;42.686;23.244;2022-08-21T00:29:29;93723.13;;;21.64;78.94
10732;BME280;5417;42.686;23.244;2022-08-21T00:31:57;93726.81;;;21.63;79.21
10732;BME280;5417;42.686;23.244;2022-08-21T00:34:25;93727.22;;;21.60;78.58
10732;BME280;5417;42.686;23.244;2022-08-21T00:36:52;93728.25;;;21.59;78.43
10732;BME280;5417;42.686;23.244;2022-08-21T00:39:19;93728.03;;;21.60;78.27
10732;BME280;5417;42.686;23.244;2022-08-21T00:41:46;93726.19;;;21.61;78.11
10732;BME280;5417;42.686;23.244;2022-08-21T00:44:13;93728.59;;;21.69;78.17
10732;BME280;5417;42.686;23.244;2022-08-21T00:46:42;93727.53;;;21.83;77.09
10732;BME280;5417;42.686;23.244;2022-08-21T00:49:12;93738.13;;;21.83;77.02
10732;BME280;5417;42.686;23.244;2022-08-21T00:51:42;93727.16;;;21.86;76.23
10732;BME280;5417;42.686;23.244;2022-08-21T00:54:11;93732.03;;;21.76;76.38
10732;BME280;5417;42.686;23.244;2022-08-21T00:56:39;93737.53;;;21.81;76.37
10732;BME280;5417;42.686;23.244;2022-08-21T00:59:06;93732.69;;;21.71;76.89
10732;BME280;5417;42.686;23.244;2022-08-21T01:01:33;93720.28;;;21.59;76.95
10732;BME280;5417;42.686;23.244;2022-08-21T01:04:01;93728.06;;;21.47;77.36
10732;BME280;5417;42.686;23.244;2022-08-21T01:06:30;93720.13;;;21.47;78.21
10732;BME280;5417;42.686;23.244;2022-08-21T01:08:57;93723.41;;;21.42;78.13
10732;BME280;5417;42.686;23.244;2022-08-21T01:11:25;93720.94;;;21.48;77.21
10732;BME280;5417;42.686;23.244;2022-08-21T01:13:52;93727.66;;;21.44;77.79
10732;BME280;5417;42.686;23.244;2022-08-21T01:16:21;93718.72;;;21.31;77.93
10732;BME280;5417;42.686;23.244;2022-08-21T01:18:50;93706.91;;;21.21;77.73
10732;BME280;5417;42.686;23.244;2022-08-21T01:21:20;93701.81;;;21.19;77.66
10732;BME280;5417;42.686;23.244;2022-08-21T01:23:49;93704.88;;;21.16;78.19
10732;BME280;5417;42.686;23.244;2022-08-21T01:26:27;93708.72;;;21.20;78.47
10732;BME280;5417;42.686;23.244;2022-08-21T01:28:57;93709.34;;;21.09;79.92
10732;BME280;5417;42.686;23.244;2022-08-21T01:31:27;93702.66;;;21.06;80.29
10732;BME280;5417;42.686;23.244;2022-08-21T01:33:55;93696.50;;;21.19;79.64
10732;BME280;5417;42.686;23.244;2022-08-21T01:36:25;93705.88;;;21.15;79.58
10732;BME280;5417;42.686;23.244;2022-08-21T01:38:52;93707.94;;;21.13;79.98
10732;BME280;5417;42.686;23.244;2022-08-21T01:41:20;93706.31;;;21.12;80.42
10732;BME280;5417;42.686;23.244;2022-08-21T01:43:48;93705.88;;;21.15;80.33
10732;BME280;5417;42.686;23.244;2022-08-21T01:46:15;93711.78;;;21.17;79.57
10732;BME280;5417;42.686;23.244;2022-08-21T01:48:42;93704.88;;;21.16;79.65
10732;BME280;5417;42.686;23.244;2022-08-21T01:51:10;93707.09;;;21.19;80.15
10732;BME280;5417;42.686;23.244;2022-08-21T01:53:39;93696.94;;;21.16;79.79
10732;BME280;5417;42.686;23.244;2022-08-21T01:56:08;93699.78;;;21.41;78.09
10732;BME280;5417;42.686;23.244;2022-08-21T01:58:36;93701.00;;;21.45;76.83
10732;BME280;5417;42.686;23.244;2022-08-21T02:01:03;93714.06;;;21.33;76.70
10732;BME280;5417;42.686;23.244;2022-08-21T02:03:30;93722.78;;;21.21;77.16
10732;BME280;5417;42.686;23.244;2022-08-21T02:05:57;93719.75;;;20.91;78.88
10732;BME280;5417;42.686;23.244;2022-08-21T02:08:24;93723.81;;;20.60;80.90
10732;BME280;5417;42.686;23.244;2022-08-21T02:10:52;93724.72;;;20.26;82.62
10732;BME280;5417;42.686;23.244;2022-08-21T02:13:19;93728.97;;;20.21;83.41
10732;BME280;5417;42.686;23.244;2022-08-21T02:15:46;93717.16;;;20.03;84.38
10732;BME280;5417;42.686;23.244;2022-08-21T02:18:13;93720.59;;;19.97;84.63
10732;BME280;5417;42.686;23.244;2022-08-21T02:20:45;93732.16;;;19.90;85.32
10732;BME280;5417;42.686;23.244;2022-08-21T02:23:13;93731.13;;;19.84;85.39
10732;BME280;5417;42.686;23.244;2022-08-21T02:25:40;93739.88;;;19.91;85.72
10732;BME280;5417;42.686;23.244;2022-08-21T02:28:12;93739.69;;;19.99;85.79
10732;BME280;5417;42.686;23.244;2022-08-21T02:30:41;93730.34;;;20.03;85.24
10732;BME280;5417;42.686;23.244;2022-08-21T02:33:09;93737.69;;;20.08;84.96
10732;BME280;5417;42.686;23.244;2022-08-21T02:35:42;93728.16;;;20.20;84.24
10732;BME280;5417;42.686;23.244;2022-08-21T02:38:12;93726.34;;;20.21;83.79
10732;BME280;5417;42.686;23.244;2022-08-21T02:40:41;93741.38;;;20.27;83.44
10732;BME280;5417;42.686;23.244;2022-08-21T02:43:10;93734.53;;;20.32;83.02
10732;BME280;5417;42.686;23.244;2022-08-21T02:45:38;93738.03;;;20.39;82.36
10732;BME280;5417;42.686;23.244;2022-08-21T02:48:08;93741.69;;;20.45;82.36
10732;BME280;5417;42.686;23.244;2022-08-21T02:50:37;93732.13;;;20.51;82.12
10732;BME280;5417;42.686;23.244;2022-08-21T02:53:23;93731.53;;;20.55;81.50
10732;BME280;5417;42.686;23.244;2022-08-21T02:55:50;93725.03;;;20.58;80.92
10732;BME280;5417;42.686;23.244;2022-08-21T02:58:21;93728.69;;;20.63;80.93
10732;BME280;5417;42.686;23.244;2022-08-21T03:00:49;93739.66;;;20.67;80.83
10732;BME280;5417;42.686;23.244;2022-08-21T03:03:16;93737.44;;;20.70;81.00
10732;BME280;5417;42.686;23.244;2022-08-21T03:05:44;93747.19;;;20.70;80.54
10732;BME280;5417;42.686;23.244;2022-08-21T03:08:14;93743.34;;;20.72;81.07
10732;BME280;5417;42.686;23.244;2022-08-21T03:10:43;93736.63;;;20.76;80.92
10732;BME280;5417;42.686;23.244;2022-08-21T03:13:11;93731.53;;;20.75;80.86
10732;BME280;5417;42.686;23.244;2022-08-21T03:15:41;93738.47;;;20.76;80.72
10732;BME280;5417;42.686;23.244;2022-08-21T03:18:09;93734.59;;;20.78;80.63
10732;BME280;5417;42.686;23.244;2022-08-21T03:20:38;93741.72;;;20.78;80.69
10732;BME280;5417;42.686;23.244;2022-08-21T03:23:06;93743.75;;;20.76;80.59
10732;BME280;5417;42.686;23.244;2022-08-21T03:25:36;93750.88;;;20.75;80.48
10732;BME280;5417;42.686;23.244;2022-08-21T03:28:05;93740.91;;;20.77;80.46
10732;BME280;5417;42.686;23.244;2022-08-21T03:30:33;93735.19;;;20.80;80.86
10732;BME280;5417;42.686;23.244;2022-08-21T03:33:01;93722.63;;;20.83;80.75
10732;BME280;5417;42.686;23.244;2022-08-21T03:35:28;93734.38;;;20.80;80.58
10732;BME280;5417;42.686;23.244;2022-08-21T03:37:55;93722.19;;;20.79;80.32
10732;BME280;5417;42.686;23.244;2022-08-21T03:40:24;93721.38;;;20.72;80.46
10732;BME280;5417;42.686;23.244;2022-08-21T03:42:51;93737.03;;;20.80;79.99
10732;BME280;5417;42.686;23.244;2022-08-21T03:45:19;93726.66;;;20.78;79.37
10732;BME280;5417;42.686;23.244;2022-08-21T03:47:57;93735.22;;;20.87;80.38
10732;BME280;5417;42.686;23.244;2022-08-21T03:50:27;93743.34;;;21.05;79.82
10732;BME280;5417;42.686;23.244;2022-08-21T03:53:05;93734.00;;;21.09;78.83
10732;BME280;5417;42.686;23.244;2022-08-21T03:55:32;93740.69;;;21.12;79.33
10732;BME280;5417;42.686;23.244;2022-08-21T03:57:59;93735.84;;;20.96;80.04
10732;BME280;5417;42.686;23.244;2022-08-21T04:00:26;93750.50;;;20.92;80.21
10732;BME280;5417;42.686;23.244;2022-08-21T04:02:53;93745.59;;;20.89;81.36
10732;BME280;5417;42.686;23.244;2022-08-21T04:05:20;93747.84;;;20.98;79.62
10732;BME280;5417;42.686;23.244;2022-08-21T04:07:56;93748.66;;;20.92;80.47
10732;BME280;5417;42.686;23.244;2022-08-21T04:10:24;93752.09;;;20.79;81.49
10732;BME280;5417;42.686;23.244;2022-08-21T04:12:51;93751.28;;;20.72;82.27
10732;BME280;5417;42.686;23.244;2022-08-21T04:15:19;93756.97;;;20.69;82.84
10732;BME280;5417;42.686;23.244;2022-08-21T04:17:46;93762.47;;;20.68;82.86
10732;BME280;5417;42.686;23.244;2022-08-21T04:20:14;93751.06;;;20.67;82.90
10732;BME280;5417;42.686;23.244;2022-08-21T04:22:42;93756.56;;;20.72;82.69
10732;BME280;5417;42.686;23.244;2022-08-21T04:25:12;93744.75;;;20.62;83.05
10732;BME280;5417;42.686;23.244;2022-08-21T04:27:39;93746.41;;;20.83;82.81
10732;BME280;5417;42.686;23.244;2022-08-21T04:30:08;93750.25;;;20.67;81.99
10732;BME280;5417;42.686;23.244;2022-08-21T04:32:35;93744.75;;;20.62;82.62
10732;BME280;5417;42.686;23.244;2022-08-21T04:35:04;93751.25;;;20.53;82.97
10732;BME280;5417;42.686;23.244;2022-08-21T04:37:31;93756.13;;;20.49;83.18
10732;BME280;5417;42.686;23.244;2022-08-21T04:39:58;93756.53;;;20.53;83.26
10732;BME280;5417;42.686;23.244;2022-08-21T04:42:27;93749.63;;;20.58;83.70
10732;BME280;5417;42.686;23.244;2022-08-21T04:44:55;93749.84;;;20.63;83.54
10732;BME280;5417;42.686;23.244;2022-08-21T04:47:23;93741.75;;;20.85;83.51
10732;BME280;5417;42.686;23.244;2022-08-21T04:49:50;93740.91;;;20.97;82.59
10732;BME280;5417;42.686;23.244;2022-08-21T04:52:19;93747.22;;;21.09;81.49
10732;BME280;5417;42.686;23.244;2022-08-21T04:54:49;93743.19;;;21.33;81.04
10732;BME280;5417;42.686;23.244;2022-08-21T04:57:17;93743.94;;;21.54;79.79
10732;BME280;5417;42.686;23.244;2022-08-21T04:59:49;93743.47;;;21.77;78.29
10732;BME280;5417;42.686;23.244;2022-08-21T05:02:17;93739.38;;;21.81;77.33
10732;BME280;5417;42.686;23.244;2022-08-21T05:04:50;93754.84;;;21.90;77.11
10732;BME280;5417;42.686;23.244;2022-08-21T05:07:20;93752.38;;;21.95;77.14
10732;BME280;5417;42.686;23.244;2022-08-21T05:09:49;93749.03;;;22.20;76.45
10732;BME280;5417;42.686;23.244;2022-08-21T05:12:17;93748.00;;;22.21;76.11
10732;BME280;5417;42.686;23.244;2022-08-21T05:14:44;93746.19;;;22.15;76.49
10732;BME280;5417;42.686;23.244;2022-08-21T05:17:12;93748.06;;;22.01;75.93
10732;BME280;5417;42.686;23.244;2022-08-21T05:19:40;93756.47;;;21.85;75.47
10732;BME280;5417;42.686;23.244;2022-08-21T05:22:07;93755.88;;;21.76;75.61
10732;BME280;5417;42.686;23.244;2022-08-21T05:24:34;93759.16;;;21.71;76.03
10732;BME280;5417;42.686;23.244;2022-08-21T05:27:01;93754.50;;;21.67;76.05
10732;BME280;5417;42.686;23.244;2022-08-21T05:29:28;93753.50;;;21.61;75.63
10732;BME280;5417;42.686;23.244;2022-08-21T05:31:56;93751.44;;;21.63;75.56
10732;BME280;5417;42.686;23.244;2022-08-21T05:34:24;93748.00;;;21.63;75.83
10732;BME280;5417;42.686;23.244;2022-08-21T05:36:51;93741.06;;;21.62;75.21
10732;BME280;5417;42.686;23.244;2022-08-21T05:39:18;93739.63;;;21.66;74.98
10732;BME280;5417;42.686;23.244;2022-08-21T05:41:45;93740.44;;;21.66;74.89
10732;BME280;5417;42.686;23.244;2022-08-21T05:44:13;93730.66;;;21.67;75.03
10732;BME280;5417;42.686;23.244;2022-08-21T05:46:39;93729.03;;;21.66;75.67
10732;BME280;5417;42.686;23.244;2022-08-21T05:49:06;93730.25;;;21.70;76.29
10732;BME280;5417;42.686;23.244;2022-08-21T05:51:35;93732.06;;;21.69;75.87
10732;BME280;5417;42.686;23.244;2022-08-21T05:54:02;93737.78;;;21.66;75.69
10732;BME280;5417;42.686;23.244;2022-08-21T05:56:29;93738.22;;;21.63;75.77
10732;BME280;5417;42.686;23.244;2022-08-21T05:58:56;93744.94;;;21.59;75.46
10732;BME280;5417;42.686;23.244;2022-08-21T06:01:23;93746.97;;;21.64;75.85
10732;BME280;5417;42.686;23.244;2022-08-21T06:03:51;93741.03;;;21.75;77.58
10732;BME280;5417;42.686;23.244;2022-08-21T06:06:17;93748.31;;;21.93;77.13
10732;BME280;5417;42.686;23.244;2022-08-21T06:08:46;93747.28;;;21.94;77.13
10732;BME280;5417;42.686;23.244;2022-08-21T06:11:13;93741.97;;;22.00;76.85
10732;BME280;5417;42.686;23.244;2022-08-21T06:13:40;93746.44;;;22.00;76.31
10732;BME280;5417;42.686;23.244;2022-08-21T06:16:10;93744.63;;;21.94;77.38
10732;BME280;5417;42.686;23.244;2022-08-21T06:18:37;93732.03;;;21.76;78.12
10732;BME280;5417;42.686;23.244;2022-08-21T06:21:05;93736.56;;;21.69;79.41
10732;BME280;5417;42.686;23.244;2022-08-21T06:23:32;93735.41;;;22.10;78.72
10732;BME280;5417;42.686;23.244;2022-08-21T06:26:02;93727.06;;;22.51;75.21
10732;BME280;5417;42.686;23.244;2022-08-21T06:28:30;93736.63;;;22.83;74.37
10732;BME280;5417;42.686;23.244;2022-08-21T06:30:57;93735.03;;;23.07;73.62
10732;BME280;5417;42.686;23.244;2022-08-21T06:33:25;93741.25;;;23.44;72.78
10732;BME280;5417;42.686;23.244;2022-08-21T06:35:52;93734.94;;;23.82;70.67
10732;BME280;5417;42.686;23.244;2022-08-21T06:38:18;93737.69;;;24.12;68.87
10732;BME280;5417;42.686;23.244;2022-08-21T06:40:45;93737.22;;;24.33;68.53
10732;BME280;5417;42.686;23.244;2022-08-21T06:43:16;93740.88;;;24.02;66.56
10732;BME280;5417;42.686;23.244;2022-08-21T06:45:44;93729.81;;;24.35;68.81
10732;BME280;5417;42.686;23.244;2022-08-21T06:48:11;93731.41;;;24.54;67.06
10732;BME280;5417;42.686;23.244;2022-08-21T06:50:38;93733.88;;;24.38;66.86
10732;BME280;5417;42.686;23.244;2022-08-21T06:53:07;93735.59;;;24.32;67.92
10732;BME280;5417;42.686;23.244;2022-08-21T06:55:35;93735.41;;;23.97;67.92
10732;BME280;5417;42.686;23.244;2022-08-21T07:05:31;93746.91;;;23.73;68.07
10732;BME280;5417;42.686;23.244;2022-08-21T07:07:58;93749.78;;;23.89;67.64
10732;BME280;5417;42.686;23.244;2022-08-21T07:10:26;93748.63;;;24.04;67.55
10732;BME280;5417;42.686;23.244;2022-08-21T07:12:54;93752.44;;;23.71;66.68
10732;BME280;5417;42.686;23.244;2022-08-21T07:15:21;93755.56;;;23.43;68.21
10732;BME280;5417;42.686;23.244;2022-08-21T07:17:48;93758.97;;;23.25;68.98
10732;BME280;5417;42.686;23.244;2022-08-21T07:20:15;93757.72;;;23.28;69.83
10732;BME280;5417;42.686;23.244;2022-08-21T07:22:44;93750.13;;;23.32;68.52
10732;BME280;5417;42.686;23.244;2022-08-21T07:25:11;93757.81;;;23.40;67.79
10732;BME280;5417;42.686;23.244;2022-08-21T07:27:40;93752.19;;;23.54;67.34
10732;BME280;5417;42.686;23.244;2022-08-21T07:30:07;93757.25;;;23.81;66.86
10732;BME280;5417;42.686;23.244;2022-08-21T07:32:34;93750.16;;;23.93;66.33
10732;BME280;5417;42.686;23.244;2022-08-21T07:35:02;93738.28;;;23.96;64.37
10732;BME280;5417;42.686;23.244;2022-08-21T07:37:29;93734.13;;;24.18;64.88
10732;BME280;5417;42.686;23.244;2022-08-21T07:39:57;93738.38;;;24.56;64.18
10732;BME280;5417;42.686;23.244;2022-08-21T07:42:24;93725.91;;;25.09;62.24
10732;BME280;5417;42.686;23.244;2022-08-21T07:44:51;93722.19;;;25.45;60.80
10732;BME280;5417;42.686;23.244;2022-08-21T07:47:18;93715.72;;;25.41;61.96
10732;BME280;5417;42.686;23.244;2022-08-21T07:49:45;93724.75;;;25.40;61.67
10732;BME280;5417;42.686;23.244;2022-08-21T07:52:12;93717.56;;;25.41;62.38
10732;BME280;5417;42.686;23.244;2022-08-21T07:54:39;93718.50;;;25.46;63.22
10732;BME280;5417;42.686;23.244;2022-08-21T07:57:07;93723.22;;;24.98;63.73
10732;BME280;5417;42.686;23.244;2022-08-21T07:59:34;93729.25;;;24.63;66.14
10732;BME280;5417;42.686;23.244;2022-08-21T08:02:01;93728.66;;;24.13;65.62
10732;BME280;5417;42.686;23.244;2022-08-21T08:04:29;93729.84;;;23.80;67.88
10732;BME280;5417;42.686;23.244;2022-08-21T08:06:55;93734.66;;;23.72;68.30
10732;BME280;5417;42.686;23.244;2022-08-21T08:09:23;93737.38;;;23.65;67.80
10732;BME280;5417;42.686;23.244;2022-08-21T08:11:50;93718.13;;;23.70;67.47
10732;BME280;5417;42.686;23.244;2022-08-21T08:14:18;93720.50;;;23.96;67.92
10732;BME280;5417;42.686;23.244;2022-08-21T08:16:45;93717.91;;;24.38;65.89
10732;BME280;5417;42.686;23.244;2022-08-21T08:19:15;93719.09;;;24.72;64.27
10732;BME280;5417;42.686;23.244;2022-08-21T08:21:42;93707.84;;;25.23;62.99
10732;BME280;5417;42.686;23.244;2022-08-21T08:24:09;93718.03;;;25.61;61.36
10732;BME280;5417;42.686;23.244;2022-08-21T08:26:36;93717.09;;;25.91;58.25
10732;BME280;5417;42.686;23.244;2022-08-21T08:29:03;93712.66;;;25.96;57.59
10732;BME280;5417;42.686;23.244;2022-08-21T08:31:31;93722.25;;;26.21;57.22
10732;BME280;5417;42.686;23.244;2022-08-21T08:33:58;93716.34;;;26.59;57.09
10732;BME280;5417;42.686;23.244;2022-08-21T08:36:32;93720.97;;;26.80;55.25
10732;BME280;5417;42.686;23.244;2022-08-21T08:39:03;93717.81;;;26.83;55.02
10732;BME280;5417;42.686;23.244;2022-08-21T08:41:32;93726.41;;;26.85;54.23
10732;BME280;5417;42.686;23.244;2022-08-21T08:44:02;93726.16;;;26.87;54.17
10732;BME280;5417;42.686;23.244;2022-08-21T08:46:35;93719.84;;;26.93;55.59
10732;BME280;5417;42.686;23.244;2022-08-21T08:49:08;93716.06;;;26.32;57.57
10732;BME280;5417;42.686;23.244;2022-08-21T08:51:40;93714.19;;;25.92;59.76
10732;BME280;5417;42.686;23.244;2022-08-21T08:54:14;93715.56;;;25.95;60.15
10732;BME280;5417;42.686;23.244;2022-08-21T08:56:42;93712.31;;;25.93;59.03
10732;BME280;5417;42.686;23.244;2022-08-21T08:59:15;93712.56;;;26.03;60.01
10732;BME280;5417;42.686;23.244;2022-08-21T09:01:46;93699.63;;;26.23;59.27
10732;BME280;5417;42.686;23.244;2022-08-21T09:04:18;93702.25;;;26.35;56.59
10732;BME280;5417;42.686;23.244;2022-08-21T09:06:58;93696.22;;;26.39;56.04
10732;BME280;5417;42.686;23.244;2022-08-21T09:09:43;93703.16;;;26.40;57.08
10732;BME280;5417;42.686;23.244;2022-08-21T09:12:17;93698.31;;;26.26;55.73
10732;BME280;5417;42.686;23.244;2022-08-21T09:14:53;93701.56;;;26.28;57.08
10732;BME280;5417;42.686;23.244;2022-08-21T09:17:45;93691.50;;;26.58;56.22
10732;BME280;5417;42.686;23.244;2022-08-21T09:20:22;93689.19;;;26.95;56.05
10732;BME280;5417;42.686;23.244;2022-08-21T09:23:01;93684.31;;;26.92;55.60
10732;BME280;5417;42.686;23.244;2022-08-21T09:25:36;93686.06;;;27.15;54.74
10732;BME280;5417;42.686;23.244;2022-08-21T09:28:07;93683.81;;;27.07;54.25
10732;BME280;5417;42.686;23.244;2022-08-21T09:30:36;93682.22;;;26.94;54.60
10732;BME280;5417;42.686;23.244;2022-08-21T09:33:09;93672.97;;;26.68;54.40
10732;BME280;5417;42.686;23.244;2022-08-21T09:35:48;93673.53;;;26.54;54.47
10732;BME280;5417;42.686;23.244;2022-08-21T09:38:25;93672.66;;;26.82;53.41
10732;BME280;5417;42.686;23.244;2022-08-21T09:40:57;93672.81;;;26.92;52.62
10732;BME280;5417;42.686;23.244;2022-08-21T09:43:25;93669.84;;;26.88;51.78
10732;BME280;5417;42.686;23.244;2022-08-21T09:46:09;93670.47;;;26.79;51.93
10732;BME280;5417;42.686;23.244;2022-08-21T09:48:43;93677.28;;;26.69;52.15
10732;BME280;5417;42.686;23.244;2022-08-21T09:51:12;93668.75;;;26.56;52.26
10732;BME280;5417;42.686;23.244;2022-08-21T09:53:43;93672.09;;;26.63;53.54
10732;BME280;5417;42.686;23.244;2022-08-21T09:56:20;93673.88;;;26.57;54.06
10732;BME280;5417;42.686;23.244;2022-08-21T09:59:24;93665.28;;;26.55;53.09
10732;BME280;5417;42.686;23.244;2022-08-21T10:01:53;93660.78;;;26.44;52.56
10732;BME280;5417;42.686;23.244;2022-08-21T10:04:24;93658.22;;;26.49;53.18
10732;BME280;5417;42.686;23.244;2022-08-21T10:06:51;93653.34;;;26.46;53.28
10732;BME280;5417;42.686;23.244;2022-08-21T10:09:19;93655.41;;;26.56;53.53
10732;BME280;5417;42.686;23.244;2022-08-21T10:11:53;93657.13;;;26.62;52.89
10732;BME280;5417;42.686;23.244;2022-08-21T10:14:37;93645.41;;;26.80;51.92
10732;BME280;5417;42.686;23.244;2022-08-21T10:17:15;93654.63;;;26.72;51.33
10732;BME280;5417;42.686;23.244;2022-08-21T10:19:51;93637.72;;;26.66;52.35
10732;BME280;5417;42.686;23.244;2022-08-21T10:22:27;93637.31;;;26.75;52.05
10732;BME280;5417;42.686;23.244;2022-08-21T10:25:02;93636.16;;;26.87;51.66
10732;BME280;5417;42.686;23.244;2022-08-21T10:27:39;93636.41;;;27.02;50.76
10732;BME280;5417;42.686;23.244;2022-08-21T10:30:34;93635.13;;;26.88;51.00
10732;BME280;5417;42.686;23.244;2022-08-21T10:33:23;93634.16;;;26.78;52.61
10732;BME280;5417;42.686;23.244;2022-08-21T10:35:59;93624.13;;;26.68;51.69
10732;BME280;5417;42.686;23.244;2022-08-21T10:41:43;93631.88;;;26.86;52.08
10732;BME280;5417;42.686;23.244;2022-08-21T10:44:22;93620.47;;;26.91;51.71
10732;BME280;5417;42.686;23.244;2022-08-21T10:46:58;93618.63;;;27.08;51.56
10732;BME280;5417;42.686;23.244;2022-08-21T10:49:36;93617.22;;;27.22;50.66
10732;BME280;5417;42.686;23.244;2022-08-21T10:52:22;93610.34;;;27.26;50.33
10732;BME280;5417;42.686;23.244;2022-08-21T10:54:59;93615.88;;;27.42;50.81
10732;BME280;5417;42.686;23.244;2022-08-21T10:57:35;93606.44;;;27.56;51.12
10732;BME280;5417;42.686;23.244;2022-08-21T11:00:10;93607.06;;;27.41;50.41
10732;BME280;5417;42.686;23.244;2022-08-21T11:02:41;93597.97;;;27.42;49.84
10732;BME280;5417;42.686;23.244;2022-08-21T11:05:13;93600.84;;;27.57;50.21
10732;BME280;5417;42.686;23.244;2022-08-21T11:07:47;93610.09;;;27.28;50.49
10732;BME280;5417;42.686;23.244;2022-08-21T11:10:18;93584.50;;;27.32;51.82
10732;BME280;5417;42.686;23.244;2022-08-21T11:12:50;93584.19;;;27.28;52.32
10732;BME280;5417;42.686;23.244;2022-08-21T11:15:27;93574.03;;;27.09;53.24
10732;BME280;5417;42.686;23.244;2022-08-21T11:18:12;93582.44;;;27.00;55.36
10732;BME280;5417;42.686;23.244;2022-08-21T11:20:43;93589.66;;;27.00;55.32
10732;BME280;5417;42.686;23.244;2022-08-21T11:23:18;93582.25;;;26.90;53.47
10732;BME280;5417;42.686;23.244;2022-08-21T11:25:51;93579.69;;;26.79;54.72
10732;BME280;5417;42.686;23.244;2022-08-21T11:28:23;93580.31;;;26.86;54.82
10732;BME280;5417;42.686;23.244;2022-08-21T11:31:00;93576.69;;;26.75;55.88
10732;BME280;5417;42.686;23.244;2022-08-21T11:33:43;93574.84;;;26.76;54.38
10732;BME280;5417;42.686;23.244;2022-08-21T11:36:19;93571.91;;;26.77;55.78
10732;BME280;5417;42.686;23.244;2022-08-21T11:38:57;93576.94;;;26.73;55.50
10732;BME280;5417;42.686;23.244;2022-08-21T11:41:29;93575.97;;;26.63;55.12
10732;BME280;5417;42.686;23.244;2022-08-21T11:44:05;93565.22;;;26.58;55.34
10732;BME280;5417;42.686;23.244;2022-08-21T11:46:42;93572.50;;;26.62;56.07
10732;BME280;5417;42.686;23.244;2022-08-21T11:49:27;93576.41;;;26.55;57.50
10732;BME280;5417;42.686;23.244;2022-08-21T11:52:07;93569.25;;;26.44;56.27
10732;BME280;5417;42.686;23.244;2022-08-21T11:54:41;93573.44;;;26.39;57.23
10732;BME280;5417;42.686;23.244;2022-08-21T11:57:16;93573.81;;;26.31;55.43
10732;BME280;5417;42.686;23.244;2022-08-21T12:00:51;93567.50;;;26.21;55.86
10732;BME280;5417;42.686;23.244;2022-08-21T12:04:10;93566.13;;;26.18;56.89
10732;BME280;5417;42.686;23.244;2022-08-21T12:06:43;93561.34;;;26.03;56.40
10732;BME280;5417;42.686;23.244;2022-08-21T12:09:29;93562.28;;;25.97;54.22
10732;BME280;5417;42.686;23.244;2022-08-21T12:12:05;93548.53;;;25.89;55.69
10732;BME280;5417;42.686;23.244;2022-08-21T12:14:37;93558.28;;;25.83;55.19
10732;BME280;5417;42.686;23.244;2022-08-21T12:17:07;93549.78;;;25.69;55.49
10732;BME280;5417;42.686;23.244;2022-08-21T12:19:34;93554.41;;;25.62;56.86
10732;BME280;5417;42.686;23.244;2022-08-21T12:22:09;93562.31;;;25.57;56.32
10732;BME280;5417;42.686;23.244;2022-08-21T12:24:38;93563.72;;;25.48;55.85
10732;BME280;5417;42.686;23.244;2022-08-21T12:27:25;93560.69;;;25.56;55.89
10732;BME280;5417;42.686;23.244;2022-08-21T12:29:55;93558.97;;;25.50;55.42
10732;BME280;5417;42.686;23.244;2022-08-21T12:32:26;93551.91;;;25.44;56.08
10732;BME280;5417;42.686;23.244;2022-08-21T12:34:57;93559.22;;;25.37;56.30
10732;BME280;5417;42.686;23.244;2022-08-21T12:37:34;93569.31;;;25.35;57.12
10732;BME280;5417;42.686;23.244;2022-08-21T12:40:04;93565.25;;;25.32;57.09
10732;BME280;5417;42.686;23.244;2022-08-21T12:42:41;93560.41;;;25.29;56.37
10732;BME280;5417;42.686;23.244;2022-08-21T12:45:17;93561.22;;;25.30;57.48
10732;BME280;5417;42.686;23.244;2022-08-21T12:47:47;93555.88;;;25.30;58.31
10732;BME280;5417;42.686;23.244;2022-08-21T12:50:19;93550.09;;;25.33;58.68
10732;BME280;5417;42.686;23.244;2022-08-21T12:52:59;93552.50;;;25.34;58.11
10732;BME280;5417;42.686;23.244;2022-08-21T12:55:30;93553.91;;;25.37;58.84
10732;BME280;5417;42.686;23.244;2022-08-21T12:57:59;93553.47;;;25.28;58.21
10732;BME280;5417;42.686;23.244;2022-08-21T13:00:29;93554.97;;;25.24;57.81
10732;BME280;5417;42.686;23.244;2022-08-21T13:02:59;93554.16;;;25.24;57.17
10732;BME280;5417;42.686;23.244;2022-08-21T13:05:32;93558.34;;;25.20;56.94
10732;BME280;5417;42.686;23.244;2022-08-21T13:08:04;93557.44;;;25.02;56.16
10732;BME280;5417;42.686;23.244;2022-08-21T13:10:33;93550.56;;;24.95;57.52
10732;BME280;5417;42.686;23.244;2022-08-21T13:13:06;93559.38;;;24.95;56.68
10732;BME280;5417;42.686;23.244;2022-08-21T13:15:35;93551.84;;;24.92;57.37
10732;BME280;5417;42.686;23.244;2022-08-21T13:18:05;93542.59;;;24.95;57.39
10732;BME280;5417;42.686;23.244;2022-08-21T13:20:34;93538.88;;;24.96;57.28
10732;BME280;5417;42.686;23.244;2022-08-21T13:23:07;93538.66;;;24.97;58.37
10732;BME280;5417;42.686;23.244;2022-08-21T13:25:36;93540.31;;;24.98;58.06
10732;BME280;5417;42.686;23.244;2022-08-21T13:28:08;93537.41;;;25.11;58.11
10732;BME280;5417;42.686;23.244;2022-08-21T13:30:39;93530.31;;;25.17;57.55